AZU5446 SSUV-SBCT
Flight info
| Callsign | AZU5446 |
|---|---|
| Flight time | N/A |
| Altitude | 7000 |
| Route | 2605S05038W DCT KOTIL |
| Aircraft | C208/L-SDFGR/C |
Departure
| Time | 2026-05-05 15:21 |
|---|---|
| Airport | José Cleto Airport (SSUV) |
Arrival
| Time | N/A |
|---|---|
| Airport | Curitiba-Afonso Pena International Airport (SBCT) |
| Time | Latitude | Longitude | Altitude | Speed | Heading |
|---|---|---|---|---|---|
| 2026-05-05 15:07 | -26.22924 | -51.06819 | 2461 ft | 0 kts | 59° |
| 2026-05-05 15:15 | -26.22923 | -51.06812 | 2463 ft | 0 kts | 94° |
| 2026-05-05 15:16 | -26.22924 | -51.06806 | 2462 ft | 4 kts | 117° |
| 2026-05-05 15:16 | -26.22941 | -51.06818 | 2460 ft | 8 kts | 243° |
| 2026-05-05 15:16 | -26.22957 | -51.06854 | 2460 ft | 3 kts | 244° |
| 2026-05-05 15:16 | -26.22961 | -51.06885 | 2460 ft | 6 kts | 307° |
| 2026-05-05 15:17 | -26.22938 | -51.06902 | 2460 ft | 2 kts | 328° |
| 2026-05-05 15:17 | -26.22904 | -51.06925 | 2457 ft | 10 kts | 328° |
| 2026-05-05 15:17 | -26.22845 | -51.06958 | 2459 ft | 3 kts | 297° |
| 2026-05-05 15:17 | -26.22845 | -51.06962 | 2460 ft | 0 kts | 248° |
| 2026-05-05 15:18 | -26.22860 | -51.06966 | 2457 ft | 4 kts | 149° |
| 2026-05-05 15:18 | -26.22866 | -51.06962 | 2457 ft | 0 kts | 149° |
| 2026-05-05 15:19 | -26.22869 | -51.06960 | 2457 ft | 5 kts | 149° |
| 2026-05-05 15:19 | -26.23032 | -51.06856 | 2462 ft | 49 kts | 151° |
| 2026-05-05 15:19 | -26.23448 | -51.06602 | 2464 ft | 83 kts | 151° |
| 2026-05-05 15:19 | -26.23969 | -51.06246 | 2554 ft | 93 kts | 145° |
| 2026-05-05 15:20 | -26.24342 | -51.05685 | 2730 ft | 92 kts | 101° |
| 2026-05-05 15:20 | -26.24225 | -51.04978 | 2832 ft | 100 kts | 66° |
| 2026-05-05 15:20 | -26.23877 | -51.04230 | 2921 ft | 112 kts | 52° |
| 2026-05-05 15:20 | -26.23263 | -51.03677 | 3051 ft | 119 kts | 27° |
| 2026-05-05 15:21 | -26.22490 | -51.03303 | 3207 ft | 124 kts | 22° |
| 2026-05-05 15:21 | -26.21661 | -51.02974 | 3243 ft | 136 kts | 19° |
| 2026-05-05 15:21 | -26.20727 | -51.02438 | 3034 ft | 156 kts | 37° |
| 2026-05-05 15:21 | -26.20327 | -51.01327 | 2754 ft | 170 kts | 100° |
| 2026-05-05 15:22 | -26.20519 | -51.00081 | 2909 ft | 157 kts | 89° |
| 2026-05-05 15:22 | -26.20274 | -50.98931 | 3079 ft | 148 kts | 70° |
| 2026-05-05 15:22 | -26.19926 | -50.97928 | 3254 ft | 136 kts | 69° |
| 2026-05-05 15:22 | -26.19592 | -50.96952 | 3437 ft | 133 kts | 70° |
| 2026-05-05 15:23 | -26.19273 | -50.96001 | 3617 ft | 131 kts | 70° |
| 2026-05-05 15:23 | -26.18957 | -50.95056 | 3800 ft | 130 kts | 69° |
| 2026-05-05 15:23 | -26.18645 | -50.94115 | 3984 ft | 129 kts | 68° |
| 2026-05-05 15:23 | -26.18333 | -50.93189 | 4177 ft | 129 kts | 69° |
| 2026-05-05 15:24 | -26.18014 | -50.92234 | 4381 ft | 134 kts | 68° |
| 2026-05-05 15:24 | -26.17680 | -50.91220 | 4567 ft | 142 kts | 67° |
| 2026-05-05 15:24 | -26.17349 | -50.90208 | 4772 ft | 140 kts | 68° |
| 2026-05-05 15:24 | -26.17008 | -50.89188 | 4966 ft | 140 kts | 66° |
| 2026-05-05 15:25 | -26.16667 | -50.88189 | 5153 ft | 137 kts | 66° |
| 2026-05-05 15:25 | -26.16339 | -50.87209 | 5340 ft | 132 kts | 65° |
| 2026-05-05 15:25 | -26.16019 | -50.86251 | 5540 ft | 133 kts | 65° |
| 2026-05-05 15:25 | -26.15695 | -50.85287 | 5738 ft | 134 kts | 65° |
| 2026-05-05 15:26 | -26.15375 | -50.84317 | 5933 ft | 134 kts | 64° |
| 2026-05-05 15:26 | -26.15154 | -50.83658 | 6058 ft | 137 kts | 64° |
| 2026-05-05 15:26 | -26.14718 | -50.82344 | 6312 ft | 134 kts | 64° |
| 2026-05-05 15:26 | -26.14395 | -50.81376 | 6510 ft | 133 kts | 63° |
| 2026-05-05 15:27 | -26.14078 | -50.80427 | 6702 ft | 130 kts | 63° |
| 2026-05-05 15:27 | -26.13761 | -50.79484 | 6896 ft | 131 kts | 63° |
| 2026-05-05 15:27 | -26.13541 | -50.78833 | 6941 ft | 142 kts | 64° |
| 2026-05-05 15:27 | -26.13089 | -50.77478 | 6941 ft | 136 kts | 63° |
| 2026-05-05 15:28 | -26.12741 | -50.76455 | 6957 ft | 147 kts | 64° |
| 2026-05-05 15:28 | -26.12496 | -50.75717 | 6955 ft | 156 kts | 65° |
| 2026-05-05 15:28 | -26.11985 | -50.74162 | 7043 ft | 161 kts | 65° |
| 2026-05-05 15:28 | -26.11727 | -50.73389 | 7133 ft | 161 kts | 64° |
| 2026-05-05 15:29 | -26.11331 | -50.72213 | 7191 ft | 164 kts | 65° |
| 2026-05-05 15:29 | -26.10927 | -50.71001 | 7193 ft | 168 kts | 65° |
| 2026-05-05 15:29 | -26.10522 | -50.69776 | 7204 ft | 172 kts | 65° |
| 2026-05-05 15:29 | -26.10095 | -50.68513 | 7198 ft | 174 kts | 65° |
| 2026-05-05 15:30 | -26.09536 | -50.66850 | 7200 ft | 172 kts | 65° |
| 2026-05-05 15:30 | -26.09258 | -50.66018 | 7202 ft | 173 kts | 65° |
| 2026-05-05 15:30 | -26.08833 | -50.64746 | 7200 ft | 177 kts | 65° |
| 2026-05-05 15:30 | -26.08402 | -50.63458 | 7197 ft | 177 kts | 66° |
| 2026-05-05 15:31 | -26.08042 | -50.62147 | 7199 ft | 176 kts | 68° |
| 2026-05-05 15:31 | -26.07638 | -50.60847 | 7197 ft | 179 kts | 66° |
| 2026-05-05 15:31 | -26.07245 | -50.59548 | 7191 ft | 179 kts | 68° |
| 2026-05-05 15:31 | -26.06857 | -50.58228 | 7192 ft | 179 kts | 67° |
| 2026-05-05 15:32 | -26.06476 | -50.56928 | 7197 ft | 178 kts | 68° |
| 2026-05-05 15:32 | -26.06085 | -50.55618 | 7198 ft | 178 kts | 68° |
| 2026-05-05 15:32 | -26.05697 | -50.54294 | 7197 ft | 180 kts | 68° |
| 2026-05-05 15:32 | -26.05314 | -50.52988 | 7193 ft | 178 kts | 68° |
| 2026-05-05 15:33 | -26.04926 | -50.51679 | 7190 ft | 178 kts | 67° |
| 2026-05-05 15:33 | -26.04544 | -50.50385 | 7192 ft | 177 kts | 68° |
| 2026-05-05 15:33 | -26.04160 | -50.49081 | 7194 ft | 177 kts | 68° |
| 2026-05-05 15:33 | -26.03775 | -50.47778 | 7190 ft | 177 kts | 68° |
| 2026-05-05 15:34 | -26.03388 | -50.46479 | 7192 ft | 177 kts | 68° |
| 2026-05-05 15:34 | -26.03003 | -50.45171 | 7192 ft | 177 kts | 68° |
| 2026-05-05 15:34 | -26.02622 | -50.43873 | 7192 ft | 179 kts | 68° |
| 2026-05-05 15:34 | -26.02226 | -50.42549 | 7193 ft | 181 kts | 68° |
| 2026-05-05 15:35 | -26.01841 | -50.41221 | 7187 ft | 179 kts | 68° |
| 2026-05-05 15:35 | -26.01456 | -50.39911 | 7193 ft | 181 kts | 68° |
| 2026-05-05 15:35 | -26.01055 | -50.38577 | 7188 ft | 182 kts | 68° |
| 2026-05-05 15:35 | -26.00659 | -50.37237 | 7190 ft | 182 kts | 68° |
| 2026-05-05 15:36 | -26.00266 | -50.35907 | 7191 ft | 181 kts | 68° |
| 2026-05-05 15:36 | -25.99869 | -50.34587 | 7186 ft | 181 kts | 68° |
| 2026-05-05 15:36 | -25.99481 | -50.33260 | 7185 ft | 179 kts | 68° |
| 2026-05-05 15:36 | -25.99096 | -50.31962 | 7182 ft | 178 kts | 67° |
| 2026-05-05 15:37 | -25.98699 | -50.30655 | 7181 ft | 177 kts | 68° |
| 2026-05-05 15:37 | -25.98320 | -50.29357 | 7184 ft | 179 kts | 68° |
| 2026-05-05 15:37 | -25.97934 | -50.28037 | 7186 ft | 179 kts | 68° |
| 2026-05-05 15:37 | -25.97540 | -50.26719 | 7182 ft | 180 kts | 68° |
| 2026-05-05 15:38 | -25.97155 | -50.25415 | 7185 ft | 179 kts | 68° |
| 2026-05-05 15:38 | -25.96763 | -50.24102 | 7181 ft | 178 kts | 68° |
| 2026-05-05 15:38 | -25.96373 | -50.22794 | 7182 ft | 176 kts | 68° |
| 2026-05-05 15:38 | -25.95994 | -50.21504 | 7182 ft | 177 kts | 68° |
| 2026-05-05 15:39 | -25.95600 | -50.20201 | 7179 ft | 176 kts | 68° |
| 2026-05-05 15:39 | -25.95217 | -50.18920 | 7177 ft | 177 kts | 68° |
| 2026-05-05 15:39 | -25.94829 | -50.17609 | 7184 ft | 179 kts | 68° |
| 2026-05-05 15:39 | -25.94445 | -50.16313 | 7179 ft | 177 kts | 68° |
| 2026-05-05 15:40 | -25.94057 | -50.15014 | 7178 ft | 176 kts | 68° |
| 2026-05-05 15:40 | -25.93675 | -50.13733 | 7180 ft | 176 kts | 68° |
| 2026-05-05 15:40 | -25.93287 | -50.12431 | 7185 ft | 178 kts | 68° |
| 2026-05-05 15:40 | -25.92899 | -50.11117 | 7185 ft | 180 kts | 68° |
| 2026-05-05 15:41 | -25.92501 | -50.09786 | 7190 ft | 182 kts | 68° |
| 2026-05-05 15:41 | -25.92107 | -50.08476 | 7185 ft | 180 kts | 67° |
| 2026-05-05 15:41 | -25.91713 | -50.07145 | 7186 ft | 181 kts | 68° |
| 2026-05-05 15:41 | -25.91312 | -50.05816 | 7180 ft | 180 kts | 68° |
| 2026-05-05 15:42 | -25.90924 | -50.04513 | 7184 ft | 180 kts | 68° |
| 2026-05-05 15:42 | -25.90526 | -50.03185 | 7184 ft | 182 kts | 68° |
| 2026-05-05 15:42 | -25.90122 | -50.01840 | 7185 ft | 183 kts | 68° |
| 2026-05-05 15:42 | -25.89728 | -50.00506 | 7175 ft | 182 kts | 68° |
| 2026-05-05 15:43 | -25.89330 | -49.99164 | 7183 ft | 183 kts | 68° |
| 2026-05-05 15:43 | -25.88926 | -49.97832 | 7177 ft | 183 kts | 68° |
| 2026-05-05 15:43 | -25.88525 | -49.96496 | 7179 ft | 181 kts | 68° |
| 2026-05-05 15:43 | -25.88125 | -49.95168 | 7175 ft | 183 kts | 68° |
| 2026-05-05 15:44 | -25.87722 | -49.93822 | 7172 ft | 181 kts | 68° |
| 2026-05-05 15:44 | -25.87332 | -49.92507 | 7171 ft | 181 kts | 69° |
| 2026-05-05 15:44 | -25.86935 | -49.91186 | 7170 ft | 179 kts | 68° |
| 2026-05-05 15:44 | -25.86539 | -49.89869 | 7177 ft | 180 kts | 68° |
| 2026-05-05 15:45 | -25.86143 | -49.88548 | 7169 ft | 180 kts | 68° |
| 2026-05-05 15:45 | -25.85750 | -49.87238 | 7170 ft | 178 kts | 68° |
| 2026-05-05 15:45 | -25.85360 | -49.85941 | 7175 ft | 178 kts | 68° |
| 2026-05-05 15:45 | -25.84972 | -49.84649 | 7169 ft | 178 kts | 68° |
| 2026-05-05 15:46 | -25.84576 | -49.83336 | 7169 ft | 178 kts | 68° |
| 2026-05-05 15:46 | -25.84169 | -49.82039 | 7175 ft | 176 kts | 62° |
| 2026-05-05 15:46 | -25.83588 | -49.80838 | 7177 ft | 178 kts | 57° |
| 2026-05-05 15:46 | -25.83006 | -49.79636 | 7171 ft | 178 kts | 58° |
| 2026-05-05 15:47 | -25.82427 | -49.78410 | 7173 ft | 178 kts | 58° |
| 2026-05-05 15:47 | -25.82041 | -49.77600 | 7177 ft | 179 kts | 58° |
| 2026-05-05 15:47 | -25.81293 | -49.76041 | 7169 ft | 158 kts | 57° |
| 2026-05-05 15:47 | -25.80802 | -49.75034 | 7169 ft | 144 kts | 56° |
| 2026-05-05 15:48 | -25.80335 | -49.74074 | 7167 ft | 134 kts | 56° |
| 2026-05-05 15:48 | -25.79894 | -49.73153 | 7182 ft | 142 kts | 57° |
| 2026-05-05 15:48 | -25.79412 | -49.72130 | 7187 ft | 156 kts | 58° |
| 2026-05-05 15:48 | -25.78892 | -49.71026 | 7187 ft | 164 kts | 58° |
| 2026-05-05 15:49 | -25.78355 | -49.69900 | 7175 ft | 163 kts | 58° |
| 2026-05-05 15:49 | -25.77834 | -49.68819 | 7168 ft | 156 kts | 58° |
| 2026-05-05 15:49 | -25.77332 | -49.67771 | 7168 ft | 154 kts | 59° |
| 2026-05-05 15:49 | -25.77131 | -49.66589 | 7166 ft | 157 kts | 85° |
| 2026-05-05 15:50 | -25.77075 | -49.65404 | 7172 ft | 155 kts | 83° |
| 2026-05-05 15:50 | -25.76979 | -49.64218 | 7165 ft | 151 kts | 81° |
| 2026-05-05 15:50 | -25.76881 | -49.63073 | 7169 ft | 150 kts | 81° |
| 2026-05-05 15:50 | -25.76791 | -49.61919 | 7163 ft | 152 kts | 82° |
| 2026-05-05 15:51 | -25.76697 | -49.60759 | 7164 ft | 149 kts | 82° |
| 2026-05-05 15:51 | -25.76605 | -49.59613 | 7167 ft | 149 kts | 82° |
| 2026-05-05 15:51 | -25.76510 | -49.58461 | 7166 ft | 151 kts | 81° |
| 2026-05-05 15:51 | -25.76412 | -49.57286 | 7171 ft | 153 kts | 81° |
| 2026-05-05 15:52 | -25.76318 | -49.56123 | 7164 ft | 151 kts | 82° |
| 2026-05-05 15:52 | -25.76222 | -49.54967 | 7163 ft | 149 kts | 82° |
| 2026-05-05 15:52 | -25.76125 | -49.53814 | 7169 ft | 152 kts | 82° |
| 2026-05-05 15:52 | -25.76033 | -49.52643 | 7170 ft | 154 kts | 82° |
| 2026-05-05 15:53 | -25.75935 | -49.51457 | 7167 ft | 153 kts | 82° |
| 2026-05-05 15:53 | -25.75840 | -49.50279 | 7169 ft | 153 kts | 82° |
| 2026-05-05 15:53 | -25.75739 | -49.49110 | 7168 ft | 151 kts | 82° |
| 2026-05-05 15:53 | -25.75646 | -49.47974 | 7172 ft | 149 kts | 82° |
| 2026-05-05 15:54 | -25.75551 | -49.46811 | 7178 ft | 152 kts | 82° |
| 2026-05-05 15:54 | -25.75457 | -49.45638 | 7179 ft | 152 kts | 83° |
| 2026-05-05 15:54 | -25.75355 | -49.44462 | 7181 ft | 153 kts | 81° |
| 2026-05-05 15:54 | -25.75260 | -49.43302 | 7179 ft | 150 kts | 82° |
| 2026-05-05 15:55 | -25.75165 | -49.42142 | 7189 ft | 151 kts | 82° |
| 2026-05-05 15:55 | -25.75066 | -49.40980 | 7187 ft | 152 kts | 82° |
| 2026-05-05 15:55 | -25.74973 | -49.39801 | 7196 ft | 155 kts | 81° |
| 2026-05-05 15:55 | -25.74870 | -49.38609 | 7197 ft | 155 kts | 82° |
| 2026-05-05 15:56 | -25.74770 | -49.37418 | 7199 ft | 155 kts | 82° |
| 2026-05-05 15:56 | -25.74676 | -49.36224 | 7197 ft | 157 kts | 83° |
| 2026-05-05 15:56 | -25.74573 | -49.35005 | 7196 ft | 158 kts | 82° |
| 2026-05-05 15:56 | -25.74467 | -49.33796 | 7199 ft | 158 kts | 82° |
| 2026-05-05 15:57 | -25.74366 | -49.32592 | 7207 ft | 157 kts | 83° |
| 2026-05-05 15:57 | -25.74268 | -49.31378 | 7208 ft | 158 kts | 83° |
| 2026-05-05 15:57 | -25.74168 | -49.30167 | 7208 ft | 158 kts | 82° |
| 2026-05-05 15:57 | -25.74070 | -49.28951 | 7206 ft | 157 kts | 83° |
| 2026-05-05 15:58 | -25.73964 | -49.27755 | 7205 ft | 154 kts | 82° |
| 2026-05-05 15:58 | -25.73863 | -49.26582 | 7212 ft | 155 kts | 83° |
| 2026-05-05 15:58 | -25.73760 | -49.25393 | 7204 ft | 154 kts | 83° |
| 2026-05-05 15:58 | -25.73675 | -49.24220 | 7208 ft | 155 kts | 84° |
| 2026-05-05 15:59 | -25.73611 | -49.23034 | 7206 ft | 153 kts | 85° |
| 2026-05-05 15:59 | -25.73577 | -49.21850 | 7209 ft | 153 kts | 87° |
| 2026-05-05 15:59 | -25.73564 | -49.20663 | 7207 ft | 153 kts | 88° |
| 2026-05-05 15:59 | -25.73572 | -49.19495 | 7204 ft | 152 kts | 90° |
| 2026-05-05 16:00 | -25.73607 | -49.18320 | 7207 ft | 151 kts | 91° |
| 2026-05-05 16:00 | -25.73665 | -49.17159 | 7207 ft | 154 kts | 92° |
| 2026-05-05 16:00 | -25.73739 | -49.15970 | 7214 ft | 154 kts | 92° |
| 2026-05-05 16:00 | -25.73712 | -49.14787 | 7185 ft | 152 kts | 65° |
| 2026-05-05 16:01 | -25.73125 | -49.13869 | 7196 ft | 147 kts | 49° |
| 2026-05-05 16:01 | -25.72707 | -49.12821 | 7203 ft | 155 kts | 78° |
| 2026-05-05 16:01 | -25.72581 | -49.11623 | 7196 ft | 155 kts | 74° |
| 2026-05-05 16:01 | -25.72031 | -49.10677 | 7195 ft | 146 kts | 36° |
| 2026-05-05 16:02 | -25.71280 | -49.09915 | 7197 ft | 149 kts | 39° |
| 2026-05-05 16:02 | -25.70547 | -49.09115 | 7196 ft | 148 kts | 39° |
| 2026-05-05 16:02 | -25.69810 | -49.08322 | 7194 ft | 147 kts | 38° |
| 2026-05-05 16:02 | -25.69046 | -49.07510 | 7076 ft | 156 kts | 38° |
| 2026-05-05 16:03 | -25.68257 | -49.06665 | 6966 ft | 161 kts | 38° |
| 2026-05-05 16:03 | -25.67441 | -49.05794 | 6856 ft | 164 kts | 38° |
| 2026-05-05 16:03 | -25.66614 | -49.04912 | 6699 ft | 167 kts | 36° |
| 2026-05-05 16:03 | -25.65591 | -49.04373 | 6455 ft | 162 kts | 359° |
| 2026-05-05 16:04 | -25.64509 | -49.04581 | 6209 ft | 156 kts | 329° |
| 2026-05-05 16:04 | -25.63720 | -49.05355 | 5974 ft | 153 kts | 301° |
| 2026-05-05 16:04 | -25.63435 | -49.06471 | 5736 ft | 153 kts | 271° |
| 2026-05-05 16:04 | -25.63768 | -49.07636 | 5477 ft | 156 kts | 240° |
| 2026-05-05 16:05 | -25.64617 | -49.08421 | 5240 ft | 165 kts | 208° |
| 2026-05-05 16:05 | -25.65765 | -49.08638 | 4986 ft | 174 kts | 178° |